createdAt,value
2023-01-13T00:01:47.724Z,9.40
2023-01-13T00:04:15.989Z,9.40
2023-01-13T00:06:44.289Z,9.27
2023-01-13T00:09:14.212Z,9.88
2023-01-13T00:12:08.062Z,9.95
2023-01-13T00:14:36.864Z,9.77
2023-01-13T00:17:05.772Z,9.98
2023-01-13T00:19:48.044Z,9.70
2023-01-13T00:22:16.313Z,9.00
2023-01-13T00:24:45.910Z,8.80
2023-01-13T00:27:14.420Z,9.63
2023-01-13T00:29:42.837Z,9.23
2023-01-13T00:32:11.234Z,8.75
2023-01-13T00:34:39.556Z,9.20
2023-01-13T00:37:08.308Z,9.68
2023-01-13T00:39:36.561Z,10.20
2023-01-13T00:42:25.288Z,9.30
2023-01-13T00:44:54.149Z,10.05
2023-01-13T00:47:23.416Z,9.65
2023-01-13T00:49:51.899Z,9.95
2023-01-13T00:52:20.227Z,8.98
2023-01-13T00:54:48.485Z,8.95
2023-01-13T00:57:18.839Z,10.00
2023-01-13T00:59:49.598Z,9.98
2023-01-13T01:02:18.195Z,8.95
2023-01-13T01:04:48.832Z,9.98
2023-01-13T01:07:23.038Z,9.10
2023-01-13T01:09:51.535Z,8.82
2023-01-13T01:12:21.171Z,8.30
2023-01-13T01:14:49.400Z,9.55
2023-01-13T01:17:19.901Z,8.23
2023-01-13T01:19:48.441Z,10.07
2023-01-13T01:22:16.751Z,9.13
2023-01-13T01:24:46.054Z,9.07
2023-01-13T01:27:14.337Z,9.05
2023-01-13T01:29:44.078Z,8.65
2023-01-13T01:32:12.293Z,9.05
2023-01-13T01:34:40.616Z,8.57
2023-01-13T01:37:08.938Z,9.38
2023-01-13T01:39:37.297Z,9.13
2023-01-13T01:42:23.098Z,9.65
2023-01-13T01:44:59.713Z,8.20
2023-01-13T01:47:30.657Z,9.00
2023-01-13T01:50:00.569Z,9.25
2023-01-13T01:52:35.411Z,8.77
2023-01-13T01:55:07.783Z,9.02
2023-01-13T01:57:43.875Z,8.57
2023-01-13T02:00:14.960Z,8.75
2023-01-13T02:02:46.389Z,8.63
2023-01-13T02:05:15.734Z,8.65
2023-01-13T02:07:47.254Z,9.00
2023-01-13T02:10:27.784Z,8.30
2023-01-13T02:12:59.871Z,8.20
2023-01-13T02:15:37.123Z,9.38
2023-01-13T02:18:17.518Z,8.30
2023-01-13T02:21:08.115Z,8.85
2023-01-13T02:24:32.665Z,8.90
2023-01-13T02:27:38.192Z,7.78
2023-01-13T02:30:41.590Z,8.63
2023-01-13T02:33:24.458Z,8.73
2023-01-13T02:35:58.273Z,9.00
2023-01-13T02:38:32.647Z,8.57
2023-01-13T02:41:26.217Z,8.43
2023-01-13T02:44:07.161Z,8.88
2023-01-13T02:46:44.901Z,9.43
2023-01-13T02:49:21.096Z,8.23
2023-01-13T02:51:51.868Z,8.52
2023-01-13T02:54:23.758Z,7.75
2023-01-13T02:56:55.304Z,9.18
2023-01-13T02:59:26.667Z,7.80
2023-01-13T03:01:58.097Z,8.85
2023-01-13T03:04:49.584Z,8.60
2023-01-13T03:07:45.730Z,8.80
2023-01-13T03:10:25.173Z,8.73
2023-01-13T03:13:02.072Z,8.68
2023-01-13T03:15:43.128Z,8.18
2023-01-13T03:18:22.546Z,8.80
2023-01-13T03:21:00.578Z,8.10
2023-01-13T03:23:34.285Z,7.95
2023-01-13T03:26:09.719Z,8.65
2023-01-13T03:28:44.898Z,7.70
2023-01-13T03:31:16.438Z,8.05
2023-01-13T03:33:49.880Z,8.52
2023-01-13T03:36:23.877Z,8.00
2023-01-13T03:38:55.823Z,8.32
2023-01-13T03:41:28.729Z,8.35
2023-01-13T03:44:31.940Z,8.40
2023-01-13T03:47:11.362Z,8.05
2023-01-13T03:50:01.260Z,8.10
2023-01-13T03:52:34.272Z,8.27
2023-01-13T03:55:06.236Z,8.02
2023-01-13T03:57:39.888Z,8.43
2023-01-13T04:00:11.850Z,7.75
2023-01-13T04:02:48.979Z,8.57
2023-01-13T04:05:20.648Z,8.23
2023-01-13T04:07:54.554Z,9.05
2023-01-13T04:10:28.935Z,8.05
2023-01-13T04:13:04.250Z,8.63
2023-01-13T04:15:36.062Z,8.90
2023-01-13T04:18:12.700Z,8.27
2023-01-13T04:20:44.065Z,8.90
2023-01-13T04:23:13.742Z,8.38
2023-01-13T04:25:42.842Z,9.57
2023-01-13T04:28:12.073Z,9.93
2023-01-13T04:30:40.509Z,9.27
2023-01-13T04:33:09.243Z,8.90
2023-01-13T04:35:38.479Z,9.93
2023-01-13T04:38:11.430Z,9.35
2023-01-13T04:40:41.414Z,9.45
2023-01-13T04:43:09.974Z,9.18
2023-01-13T04:45:38.500Z,10.18
2023-01-13T04:48:07.500Z,8.43
2023-01-13T04:50:36.445Z,9.18
2023-01-13T04:53:04.991Z,8.70
2023-01-13T04:55:35.404Z,9.38
2023-01-13T04:58:17.058Z,10.55
2023-01-13T05:00:51.903Z,9.43
2023-01-13T05:03:20.233Z,9.18
2023-01-13T05:05:52.747Z,10.20
2023-01-13T05:08:21.264Z,9.25
2023-01-13T05:10:50.992Z,9.23
2023-01-13T05:13:36.576Z,9.55
2023-01-13T05:19:00.951Z,9.70
2023-01-13T05:24:46.072Z,9.80
2023-01-13T05:27:16.167Z,9.40
2023-01-13T05:29:44.480Z,8.88
2023-01-13T05:32:12.735Z,9.50
2023-01-13T05:34:47.055Z,8.93
2023-01-13T05:37:15.343Z,9.05
2023-01-13T05:40:01.943Z,10.00
2023-01-13T05:42:56.937Z,8.98
2023-01-13T05:45:25.213Z,9.60
2023-01-13T05:47:55.595Z,9.25
2023-01-13T05:50:23.949Z,8.60
2023-01-13T05:52:52.262Z,8.88
2023-01-13T05:55:20.430Z,8.77
2023-01-13T05:57:50.013Z,10.98
2023-01-13T06:00:19.815Z,10.18
2023-01-13T06:02:48.121Z,9.57
2023-01-13T06:05:16.781Z,10.43
2023-01-13T06:07:44.987Z,10.27
2023-01-13T06:10:13.372Z,11.05
2023-01-13T06:12:41.555Z,9.45
2023-01-13T06:15:12.145Z,9.88
2023-01-13T06:17:40.403Z,10.75
2023-01-13T06:20:09.685Z,10.05
2023-01-13T06:22:40.777Z,10.13
2023-01-13T06:25:15.405Z,9.75
2023-01-13T06:27:43.887Z,10.50
2023-01-13T06:30:15.235Z,10.48
2023-01-13T06:32:47.013Z,11.13
2023-01-13T06:35:18.092Z,10.38
2023-01-13T06:37:50.533Z,10.18
2023-01-13T06:40:19.194Z,9.77
2023-01-13T06:43:04.936Z,11.27
2023-01-13T06:45:34.653Z,10.20
2023-01-13T06:48:03.038Z,10.10
2023-01-13T06:50:31.279Z,9.75
2023-01-13T06:52:59.548Z,10.43
2023-01-13T06:55:27.825Z,9.35
2023-01-13T06:57:58.372Z,10.05
2023-01-13T07:00:27.718Z,9.07
2023-01-13T07:03:10.484Z,9.82
2023-01-13T07:05:38.818Z,8.95
2023-01-13T07:08:07.546Z,9.23
2023-01-13T07:10:36.508Z,8.85
2023-01-13T07:13:23.288Z,9.23
2023-01-13T07:15:56.370Z,8.52
2023-01-13T07:18:27.477Z,8.50
2023-01-13T07:20:56.729Z,9.15
2023-01-13T07:23:25.277Z,8.75
2023-01-13T07:25:55.487Z,8.02
2023-01-13T07:28:23.681Z,9.40
2023-01-13T07:30:51.843Z,9.20
2023-01-13T07:33:20.234Z,8.20
2023-01-13T07:35:57.906Z,8.75
2023-01-13T07:38:26.279Z,8.45
2023-01-13T07:40:54.834Z,8.73
2023-01-13T07:43:34.438Z,8.07
2023-01-13T07:46:04.914Z,9.07
2023-01-13T07:48:34.516Z,9.15
2023-01-13T07:51:05.690Z,9.02
2023-01-13T07:53:33.964Z,8.73
2023-01-13T07:56:03.362Z,8.80
2023-01-13T07:58:32.059Z,9.52
2023-01-13T08:01:00.401Z,9.40
2023-01-13T08:03:28.980Z,8.65
2023-01-13T08:05:57.261Z,8.45
2023-01-13T08:08:27.076Z,9.30
2023-01-13T08:10:55.262Z,9.30
2023-01-13T08:13:23.632Z,9.05
2023-01-13T08:15:53.810Z,9.80
2023-01-13T08:18:23.312Z,10.35
2023-01-13T08:20:52.848Z,10.27
2023-01-13T08:23:21.813Z,10.30
2023-01-13T08:25:51.729Z,10.18
2023-01-13T08:28:19.960Z,10.75
2023-01-13T08:30:48.944Z,10.73
2023-01-13T08:33:17.465Z,10.70
2023-01-13T08:35:45.745Z,9.85
2023-01-13T08:38:13.949Z,9.95
2023-01-13T08:40:42.177Z,10.75
2023-01-13T08:43:11.896Z,10.57
2023-01-13T08:45:40.148Z,10.82
2023-01-13T08:48:08.496Z,10.68
2023-01-13T08:50:36.876Z,12.00
2023-01-13T08:53:05.144Z,11.05
2023-01-13T08:55:33.379Z,11.70
2023-01-13T08:58:14.532Z,10.73
2023-01-13T09:00:45.962Z,11.05
2023-01-13T09:03:14.206Z,10.70
2023-01-13T09:05:42.462Z,10.73
2023-01-13T09:08:10.681Z,9.32
2023-01-13T09:10:40.514Z,9.90
2023-01-13T09:13:13.082Z,10.77
2023-01-13T09:15:43.366Z,10.27
2023-01-13T09:18:13.453Z,10.18
2023-01-13T09:20:41.717Z,10.13
2023-01-13T09:23:11.124Z,9.23
2023-01-13T09:25:40.081Z,8.75
2023-01-13T09:28:09.291Z,8.32
2023-01-13T09:30:38.826Z,9.55
2023-01-13T09:33:20.942Z,8.45
2023-01-13T09:35:50.780Z,9.05
2023-01-13T09:38:19.459Z,9.18
2023-01-13T09:40:50.027Z,8.73
2023-01-13T09:43:39.878Z,8.50
2023-01-13T09:46:36.306Z,9.35
2023-01-13T09:49:05.450Z,8.43
2023-01-13T09:51:40.985Z,8.48
2023-01-13T09:54:16.152Z,9.00
2023-01-13T09:56:44.971Z,7.95
2023-01-13T09:59:13.814Z,8.38
2023-01-13T10:01:49.648Z,8.27
2023-01-13T10:04:20.141Z,7.97
2023-01-13T10:06:56.318Z,7.75
2023-01-13T10:09:44.328Z,7.75
2023-01-13T10:12:36.890Z,8.02
2023-01-13T10:15:05.798Z,7.63
2023-01-13T10:17:41.140Z,8.10
2023-01-13T10:20:19.766Z,8.02
2023-01-13T10:22:57.988Z,8.48
2023-01-13T10:25:45.797Z,7.68
2023-01-13T10:28:17.748Z,7.72
2023-01-13T10:30:48.507Z,7.13
2023-01-13T10:33:18.540Z,8.63
2023-01-13T10:35:52.795Z,7.63
2023-01-13T10:38:25.199Z,8.25
2023-01-13T10:40:55.515Z,8.50
2023-01-13T10:43:24.065Z,7.57
2023-01-13T10:46:05.814Z,7.80
2023-01-13T10:48:40.257Z,8.60
2023-01-13T10:51:19.248Z,8.25
2023-01-13T10:53:55.174Z,8.95
2023-01-13T10:56:25.803Z,8.55
2023-01-13T10:58:54.108Z,8.30
2023-01-13T11:01:28.321Z,8.57
2023-01-13T11:03:57.101Z,9.20
2023-01-13T11:06:27.779Z,8.88
2023-01-13T11:08:59.251Z,8.88
2023-01-13T11:11:41.290Z,7.75
2023-01-13T11:14:37.004Z,8.23
2023-01-13T11:17:13.204Z,7.53
2023-01-13T11:19:45.122Z,7.65
2023-01-13T11:22:18.246Z,8.93
2023-01-13T11:24:54.414Z,8.68
2023-01-13T11:27:28.933Z,8.50
2023-01-13T11:30:09.622Z,8.63
2023-01-13T11:32:44.544Z,8.18
2023-01-13T11:35:19.372Z,8.07
2023-01-13T11:37:53.799Z,9.25
2023-01-13T11:40:32.277Z,7.53
2023-01-13T11:43:08.459Z,8.70
2023-01-13T11:45:42.688Z,9.52
2023-01-13T11:48:16.533Z,8.52
2023-01-13T11:50:53.880Z,8.05
2023-01-13T11:53:39.302Z,8.38
2023-01-13T11:56:24.644Z,8.68
2023-01-13T11:59:46.084Z,8.52
2023-01-13T12:02:32.517Z,9.10
2023-01-13T12:05:09.861Z,8.30
2023-01-13T12:07:45.105Z,7.80
2023-01-13T12:10:30.066Z,8.48
2023-01-13T12:13:08.885Z,9.20
2023-01-13T12:15:59.443Z,9.52
2023-01-13T12:18:41.917Z,8.88
2023-01-13T12:21:31.401Z,9.23
2023-01-13T12:24:07.199Z,9.07
2023-01-13T12:26:41.856Z,9.10
2023-01-13T12:29:15.932Z,8.43
2023-01-13T12:31:45.966Z,8.90
2023-01-13T12:34:38.111Z,8.52
2023-01-13T12:37:14.799Z,7.90
2023-01-13T12:39:51.997Z,8.88
2023-01-13T12:42:43.453Z,7.85
2023-01-13T12:45:27.036Z,8.35
2023-01-13T12:47:56.184Z,8.05
2023-01-13T12:50:45.779Z,8.50
2023-01-13T12:53:38.591Z,7.55
2023-01-13T12:56:44.514Z,8.30
2023-01-13T12:59:49.963Z,8.13
2023-01-13T13:02:39.334Z,7.72
2023-01-13T13:05:40.741Z,8.05
2023-01-13T13:08:25.847Z,7.95
2023-01-13T13:11:07.815Z,7.95
2023-01-13T13:13:44.914Z,7.72
2023-01-13T13:16:54.383Z,8.32
2023-01-13T13:19:52.269Z,7.97
2023-01-13T13:22:39.464Z,8.85
2023-01-13T13:25:37.880Z,8.60
2023-01-13T13:28:21.425Z,7.85
2023-01-13T13:31:06.947Z,6.97
2023-01-13T13:33:59.538Z,7.75
2023-01-13T13:37:00.213Z,7.15
2023-01-13T13:39:48.593Z,7.72
2023-01-13T13:42:49.913Z,7.38
2023-01-13T13:45:39.188Z,7.60
2023-01-13T13:48:25.011Z,6.97
2023-01-13T13:51:00.391Z,6.85
2023-01-13T13:53:34.150Z,7.90
2023-01-13T13:56:04.696Z,7.88
2023-01-13T13:58:37.113Z,7.43
2023-01-13T14:01:06.678Z,7.40
2023-01-13T14:03:39.932Z,7.22
2023-01-13T14:06:22.019Z,7.40
2023-01-13T14:08:52.185Z,7.80
2023-01-13T14:11:28.070Z,7.60
2023-01-13T14:14:04.148Z,7.63
2023-01-13T14:16:34.617Z,7.45
2023-01-13T14:19:03.867Z,7.45
2023-01-13T14:21:32.481Z,6.40
2023-01-13T14:24:05.634Z,7.50
2023-01-13T14:26:34.182Z,7.88
2023-01-13T14:29:06.457Z,7.65
2023-01-13T14:31:35.960Z,7.10
2023-01-13T14:34:31.221Z,7.35
2023-01-13T14:36:56.606Z,7.53
2023-01-13T14:39:35.005Z,7.53
2023-01-13T14:42:03.303Z,6.82
2023-01-13T14:44:33.280Z,7.53
2023-01-13T14:47:04.100Z,7.18
2023-01-13T14:49:36.109Z,7.93
2023-01-13T14:52:14.604Z,7.20
2023-01-13T14:54:51.001Z,7.05
2023-01-13T14:57:27.682Z,6.65
2023-01-13T15:00:19.776Z,8.00
2023-01-13T15:02:49.933Z,7.40
2023-01-13T15:05:52.197Z,7.47
2023-01-13T15:08:34.657Z,7.28
2023-01-13T15:11:06.327Z,8.15
2023-01-13T15:13:53.010Z,8.38
2023-01-13T15:16:24.892Z,7.95
2023-01-13T15:18:53.603Z,7.95
2023-01-13T15:21:25.157Z,7.88
2023-01-13T15:23:53.544Z,8.02
2023-01-13T15:26:26.061Z,7.57
2023-01-13T15:28:55.618Z,7.63
2023-01-13T15:31:25.086Z,6.68
2023-01-13T15:33:53.281Z,7.78
2023-01-13T15:36:38.357Z,7.13
2023-01-13T15:39:08.104Z,6.82
2023-01-13T15:41:55.002Z,6.88
2023-01-13T15:44:40.482Z,8.40
2023-01-13T15:47:10.414Z,6.90
2023-01-13T15:49:40.989Z,7.18
2023-01-13T15:52:19.795Z,7.55
2023-01-13T15:54:48.088Z,7.43
2023-01-13T15:57:23.600Z,7.20
2023-01-13T15:59:53.479Z,7.88
2023-01-13T16:02:22.764Z,8.10
2023-01-13T16:04:53.970Z,7.65
2023-01-13T16:07:24.968Z,7.55
2023-01-13T16:09:53.952Z,7.47
2023-01-13T16:12:23.753Z,8.18
2023-01-13T16:14:52.100Z,7.90
2023-01-13T16:17:22.301Z,8.07
2023-01-13T16:19:53.511Z,7.53
2023-01-13T16:22:22.106Z,8.63
2023-01-13T16:24:50.426Z,8.65
2023-01-13T16:27:21.919Z,8.45
2023-01-13T16:29:52.521Z,8.52
2023-01-13T16:32:21.115Z,8.43
2023-01-13T16:34:53.470Z,7.80
2023-01-13T16:37:24.637Z,8.63
2023-01-13T16:39:54.296Z,7.82
2023-01-13T16:42:22.821Z,7.72
2023-01-13T16:44:53.018Z,8.15
2023-01-13T16:47:22.854Z,7.40
2023-01-13T16:49:51.539Z,8.13
2023-01-13T16:52:19.944Z,7.43
2023-01-13T16:54:48.195Z,7.75
2023-01-13T16:57:16.549Z,8.43
2023-01-13T16:59:44.853Z,9.88
2023-01-13T17:02:19.736Z,10.10
2023-01-13T17:04:49.198Z,8.38
2023-01-13T17:07:19.391Z,8.35
2023-01-13T17:09:47.820Z,8.98
2023-01-13T17:12:16.092Z,8.32
2023-01-13T17:14:44.474Z,7.88
2023-01-13T17:17:25.120Z,8.88
2023-01-13T17:19:54.565Z,9.43
2023-01-13T17:22:31.187Z,9.05
2023-01-13T17:24:59.595Z,8.73
2023-01-13T17:27:28.047Z,8.93
2023-01-13T17:29:56.706Z,8.80
2023-01-13T17:32:26.448Z,8.70
2023-01-13T17:34:54.855Z,8.82
2023-01-13T17:37:23.284Z,8.05
2023-01-13T17:39:53.676Z,8.68
2023-01-13T17:42:23.310Z,8.07
2023-01-13T17:44:52.463Z,8.57
2023-01-13T17:47:20.735Z,9.10
2023-01-13T17:49:50.377Z,9.27
2023-01-13T17:52:18.564Z,8.70
2023-01-13T17:54:46.792Z,8.55
2023-01-13T17:57:15.067Z,8.75
2023-01-13T17:59:43.335Z,8.68
2023-01-13T18:02:13.710Z,8.20
2023-01-13T18:04:42.717Z,7.82
2023-01-13T18:07:12.344Z,8.18
2023-01-13T18:09:40.640Z,7.70
2023-01-13T18:12:09.010Z,8.50
2023-01-13T18:14:37.222Z,8.50
2023-01-13T18:17:08.190Z,8.50
2023-01-13T18:19:53.583Z,8.57
2023-01-13T18:22:40.572Z,8.70
2023-01-13T18:25:32.070Z,7.60
2023-01-13T18:28:01.109Z,8.35
2023-01-13T18:30:29.347Z,7.80
2023-01-13T18:32:57.685Z,8.55
2023-01-13T18:35:25.951Z,8.30
2023-01-13T18:37:55.671Z,8.27
2023-01-13T18:40:24.031Z,7.63
2023-01-13T18:42:59.361Z,8.63
2023-01-13T18:45:29.675Z,7.55
2023-01-13T18:48:00.222Z,8.52
2023-01-13T18:50:29.078Z,8.77
2023-01-13T18:52:58.999Z,10.30
2023-01-13T18:55:28.760Z,11.15
2023-01-13T18:57:57.475Z,10.15
2023-01-13T19:00:26.937Z,11.07
2023-01-13T19:05:35.922Z,11.70
2023-01-13T19:08:06.555Z,11.30
2023-01-13T19:10:34.923Z,11.15
2023-01-13T19:13:03.327Z,10.70
2023-01-13T19:15:31.826Z,11.70
2023-01-13T19:18:00.742Z,11.00
2023-01-13T19:20:29.069Z,11.13
2023-01-13T19:22:57.412Z,11.05
2023-01-13T19:25:27.381Z,10.80
2023-01-13T19:27:55.719Z,11.55
2023-01-13T19:30:24.444Z,10.98
2023-01-13T19:32:52.814Z,11.88
2023-01-13T19:35:21.460Z,12.13
2023-01-13T19:37:50.296Z,11.43
2023-01-13T19:40:18.863Z,12.80
2023-01-13T19:43:14.499Z,11.45
2023-01-13T19:45:43.139Z,11.70
2023-01-13T19:48:12.035Z,10.65
2023-01-13T19:50:41.401Z,11.05
2023-01-13T19:53:21.725Z,10.98
2023-01-13T19:55:50.513Z,10.60
2023-01-13T19:58:20.653Z,11.25
2023-01-13T20:00:50.823Z,10.23
2023-01-13T20:03:23.744Z,10.38
2023-01-13T20:05:52.293Z,9.30
2023-01-13T20:08:21.523Z,9.50
2023-01-13T20:10:50.535Z,9.40
2023-01-13T20:13:20.152Z,9.77
2023-01-13T20:15:50.813Z,8.65
2023-01-13T20:18:32.963Z,9.05
2023-01-13T20:21:06.552Z,7.95
2023-01-13T20:23:34.919Z,7.93
2023-01-13T20:26:03.327Z,8.70
2023-01-13T20:28:38.872Z,7.97
2023-01-13T20:31:08.364Z,8.65
2023-01-13T20:33:37.084Z,8.30
2023-01-13T20:36:06.081Z,8.30
2023-01-13T20:38:38.861Z,7.50
2023-01-13T20:41:22.339Z,7.68
2023-01-13T20:43:52.368Z,7.60
2023-01-13T20:46:21.159Z,7.35
2023-01-13T20:48:49.771Z,8.05
2023-01-13T20:51:23.077Z,8.07
2023-01-13T20:53:51.430Z,7.35
2023-01-13T20:56:19.702Z,7.75
2023-01-13T20:58:51.060Z,7.13
2023-01-13T21:01:20.960Z,7.88
2023-01-13T21:03:49.427Z,7.35
2023-01-13T21:06:20.459Z,7.78
2023-01-13T21:08:49.241Z,8.25
2023-01-13T21:11:37.814Z,7.78
2023-01-13T21:14:23.291Z,6.80
2023-01-13T21:16:52.976Z,8.02
2023-01-13T21:19:20.179Z,8.02
2023-01-13T21:21:48.385Z,8.18
2023-01-13T21:24:16.664Z,7.60
2023-01-13T21:26:45.101Z,7.78
2023-01-13T21:29:13.400Z,8.02
2023-01-13T21:31:41.840Z,8.43
2023-01-13T21:34:12.328Z,7.90
2023-01-13T21:36:40.690Z,7.95
2023-01-13T21:39:09.196Z,8.63
2023-01-13T21:41:53.987Z,8.65
2023-01-13T21:44:39.951Z,8.82
2023-01-13T21:47:33.480Z,8.88
2023-01-13T21:50:03.782Z,8.13
2023-01-13T21:52:34.308Z,8.13
2023-01-13T21:55:19.594Z,7.95
2023-01-13T21:57:48.351Z,7.40
2023-01-13T22:00:19.268Z,7.97
2023-01-13T22:02:48.453Z,7.78
2023-01-13T22:05:19.474Z,7.38
2023-01-13T22:07:48.053Z,7.13
2023-01-13T22:10:18.480Z,7.22
2023-01-13T22:12:47.411Z,7.18
2023-01-13T22:15:17.163Z,8.48
2023-01-13T22:17:48.394Z,8.55
2023-01-13T22:20:19.243Z,7.50
2023-01-13T22:22:47.751Z,7.75
2023-01-13T22:25:17.347Z,6.80
2023-01-13T22:27:45.826Z,7.43
2023-01-13T22:30:17.738Z,7.30
2023-01-13T22:32:46.687Z,7.45
2023-01-13T22:35:17.406Z,8.00
2023-01-13T22:37:45.671Z,8.00
2023-01-13T22:40:14.304Z,6.82
2023-01-13T22:42:43.692Z,7.82
2023-01-13T22:45:13.897Z,6.80
2023-01-13T22:47:42.209Z,7.85
2023-01-13T22:50:12.707Z,8.77
2023-01-13T22:52:42.357Z,7.78
2023-01-13T22:55:10.964Z,7.47
2023-01-13T22:57:47.663Z,7.32
2023-01-13T23:00:19.422Z,7.13
2023-01-13T23:02:48.154Z,7.93
2023-01-13T23:05:16.465Z,7.93
2023-01-13T23:07:46.159Z,7.95
2023-01-13T23:10:14.393Z,8.18
2023-01-13T23:12:42.635Z,8.50
2023-01-13T23:15:11.884Z,7.70
2023-01-13T23:17:40.149Z,8.35
2023-01-13T23:20:09.191Z,7.50
2023-01-13T23:22:38.726Z,8.43
2023-01-13T23:25:09.794Z,7.75
2023-01-13T23:27:38.185Z,9.40
2023-01-13T23:30:09.465Z,8.30
2023-01-13T23:32:37.775Z,8.00
2023-01-13T23:35:06.710Z,8.75
2023-01-13T23:37:35.315Z,7.70
2023-01-13T23:40:03.678Z,8.35
2023-01-13T23:42:33.426Z,8.23
2023-01-13T23:45:01.737Z,8.48
2023-01-13T23:47:30.225Z,8.98
2023-01-13T23:49:58.465Z,8.00
2023-01-13T23:52:26.706Z,7.88
2023-01-13T23:54:54.983Z,8.80
2023-01-13T23:57:23.272Z,9.23
2023-01-13T23:59:53.230Z,8.57
